createdAt,value
2023-02-16T00:02:07.203Z,9.57
2023-02-16T00:07:11.109Z,9.77
2023-02-16T00:12:53.479Z,6.50
2023-02-16T00:18:00.424Z,9.57
2023-02-16T00:23:04.272Z,7.37
2023-02-16T00:28:19.954Z,7.95
2023-02-16T00:33:23.751Z,6.50
2023-02-16T00:38:27.741Z,4.53
2023-02-16T00:43:32.749Z,7.93
2023-02-16T00:48:37.642Z,9.02
2023-02-16T00:53:41.526Z,7.83
2023-02-16T00:58:45.510Z,6.70
2023-02-16T01:03:49.483Z,6.85
2023-02-16T01:09:19.539Z,5.72
2023-02-16T01:14:23.383Z,6.53
2023-02-16T01:19:27.802Z,7.57
2023-02-16T01:24:31.692Z,8.83
2023-02-16T01:29:36.124Z,6.32
2023-02-16T01:34:40.098Z,7.40
2023-02-16T01:39:44.065Z,10.00
2023-02-16T01:44:53.752Z,7.28
2023-02-16T01:50:02.126Z,7.83
2023-02-16T01:55:19.713Z,8.50
2023-02-16T02:00:32.367Z,4.70
2023-02-16T02:05:38.135Z,4.63
2023-02-16T02:11:07.155Z,9.02
2023-02-16T02:16:12.611Z,8.13
2023-02-16T02:21:59.237Z,12.40
2023-02-16T02:27:21.166Z,8.00
2023-02-16T02:32:37.818Z,8.67
2023-02-16T02:38:16.986Z,5.90
2023-02-16T02:43:20.830Z,5.73
2023-02-16T02:48:25.301Z,6.65
2023-02-16T02:53:30.159Z,6.45
2023-02-16T02:59:13.022Z,6.03
2023-02-16T03:04:23.680Z,5.20
2023-02-16T03:09:28.552Z,4.13
2023-02-16T03:19:54.236Z,8.53
2023-02-16T03:25:16.399Z,9.53
2023-02-16T03:30:22.809Z,7.90
2023-02-16T03:35:27.111Z,8.10
2023-02-16T03:40:35.858Z,7.40
2023-02-16T03:45:43.235Z,8.90
2023-02-16T03:50:47.487Z,12.40
2023-02-16T03:55:51.323Z,9.07
2023-02-16T04:00:55.851Z,9.00
2023-02-16T04:05:59.778Z,12.27
2023-02-16T04:11:23.565Z,11.33
2023-02-16T04:16:27.585Z,11.40
2023-02-16T04:21:31.507Z,8.93
2023-02-16T04:26:35.988Z,12.20
2023-02-16T04:31:40.141Z,12.00
2023-02-16T04:36:44.141Z,11.77
2023-02-16T04:41:48.322Z,13.77
2023-02-16T04:46:52.220Z,15.53
2023-02-16T04:51:56.193Z,16.43
2023-02-16T04:57:01.069Z,14.13
2023-02-16T05:02:05.401Z,15.80
2023-02-16T05:07:09.381Z,17.00
2023-02-16T05:12:33.050Z,15.30
2023-02-16T05:17:36.931Z,18.33
2023-02-16T05:22:40.811Z,25.63
2023-02-16T05:27:44.951Z,24.97
2023-02-16T05:32:49.133Z,40.23
2023-02-16T05:37:52.919Z,44.13
2023-02-16T05:42:57.108Z,50.40
2023-02-16T05:48:03.689Z,50.37
2023-02-16T05:58:12.897Z,48.87
2023-02-16T06:03:16.803Z,45.10
2023-02-16T06:08:20.674Z,44.20
2023-02-16T06:13:25.441Z,41.13
2023-02-16T06:18:30.076Z,40.83
2023-02-16T06:23:33.845Z,45.03
2023-02-16T06:28:37.793Z,43.40
2023-02-16T06:33:41.873Z,37.40
2023-02-16T06:38:46.561Z,28.70
2023-02-16T06:43:50.380Z,29.60
2023-02-16T06:48:55.459Z,29.03
2023-02-16T06:53:59.612Z,28.03
2023-02-16T06:59:03.972Z,23.70
2023-02-16T07:04:08.217Z,21.20
2023-02-16T07:09:12.951Z,25.23
2023-02-16T07:14:17.708Z,22.00
2023-02-16T07:19:21.746Z,21.90
2023-02-16T07:24:25.792Z,20.53
2023-02-16T07:29:30.653Z,19.37
2023-02-16T07:34:34.462Z,16.83
2023-02-16T07:39:38.609Z,16.00
2023-02-16T07:44:42.434Z,14.33
2023-02-16T07:49:46.465Z,12.60
2023-02-16T07:54:50.366Z,13.37
2023-02-16T07:59:56.583Z,13.47
2023-02-16T08:05:01.194Z,14.90
2023-02-16T08:10:07.724Z,14.00
2023-02-16T08:15:12.681Z,14.07
2023-02-16T08:20:16.755Z,12.80
2023-02-16T08:25:20.518Z,10.57
2023-02-16T08:30:26.498Z,10.47
2023-02-16T08:35:33.361Z,10.17
2023-02-16T08:40:37.199Z,10.48
2023-02-16T08:45:47.748Z,9.57
2023-02-16T08:50:55.652Z,8.23
2023-02-16T08:56:01.454Z,6.87
2023-02-16T09:01:09.148Z,7.63
2023-02-16T09:06:14.909Z,7.53
2023-02-16T09:11:19.570Z,7.75
2023-02-16T09:16:25.092Z,9.40
2023-02-16T09:21:34.602Z,8.75
2023-02-16T09:26:43.598Z,9.67
2023-02-16T09:31:47.557Z,9.05
2023-02-16T09:36:51.871Z,8.70
2023-02-16T09:42:34.505Z,9.33
2023-02-16T09:47:48.225Z,8.37
2023-02-16T09:52:52.544Z,8.50
2023-02-16T09:58:19.656Z,8.50
2023-02-16T10:03:42.194Z,9.27
2023-02-16T10:08:51.216Z,9.47
2023-02-16T10:13:59.821Z,8.40
2023-02-16T10:19:12.687Z,8.73
2023-02-16T10:24:17.645Z,7.93
2023-02-16T10:29:24.785Z,8.17
2023-02-16T10:35:00.196Z,8.68
2023-02-16T10:40:23.494Z,9.00
2023-02-16T10:45:32.764Z,8.57
2023-02-16T10:50:53.271Z,8.07
2023-02-16T10:55:59.128Z,8.93
2023-02-16T11:01:22.908Z,8.77
2023-02-16T11:06:27.649Z,10.20
2023-02-16T11:11:40.392Z,9.73
2023-02-16T11:16:44.333Z,11.10
2023-02-16T11:21:52.841Z,9.63
2023-02-16T11:27:26.857Z,9.90
2023-02-16T11:32:35.221Z,9.07
2023-02-16T11:37:41.703Z,9.07
2023-02-16T11:42:52.636Z,8.80
2023-02-16T11:48:02.870Z,9.73
2023-02-16T11:53:13.756Z,8.90
2023-02-16T11:58:28.720Z,9.17
2023-02-16T12:04:00.918Z,8.97
2023-02-16T12:09:14.751Z,6.57
2023-02-16T12:14:39.038Z,8.00
2023-02-16T12:19:49.738Z,8.87
2023-02-16T12:25:06.103Z,8.33
2023-02-16T12:30:20.884Z,6.93
2023-02-16T12:35:37.365Z,7.50
2023-02-16T12:41:24.602Z,6.43
2023-02-16T12:46:32.063Z,6.83
2023-02-16T12:51:47.200Z,9.10
2023-02-16T12:57:08.858Z,7.37
2023-02-16T13:02:23.889Z,7.17
2023-02-16T13:07:41.220Z,5.57
2023-02-16T13:13:17.331Z,5.47
2023-02-16T13:18:29.149Z,5.82
2023-02-16T13:23:48.014Z,4.83
2023-02-16T13:29:07.752Z,5.83
2023-02-16T13:34:39.172Z,6.30
2023-02-16T13:40:02.113Z,9.20
2023-02-16T13:45:19.379Z,7.73
2023-02-16T13:50:23.567Z,8.90
2023-02-16T13:55:35.724Z,7.45
2023-02-16T14:00:46.306Z,5.93
2023-02-16T14:05:54.556Z,8.57
2023-02-16T14:11:06.801Z,9.77
2023-02-16T14:16:12.792Z,9.27
2023-02-16T14:21:48.074Z,9.75
2023-02-16T14:27:03.946Z,8.00
2023-02-16T14:32:40.299Z,7.88
2023-02-16T14:37:59.174Z,8.13
2023-02-16T14:43:08.110Z,6.00
2023-02-16T14:48:36.741Z,5.87
2023-02-16T14:54:11.251Z,7.23
2023-02-16T14:59:46.420Z,5.07
2023-02-16T15:04:50.459Z,6.10
2023-02-16T15:09:58.596Z,8.80
2023-02-16T15:15:21.135Z,7.07
2023-02-16T15:20:32.443Z,7.53
2023-02-16T15:25:40.017Z,6.50
2023-02-16T15:31:00.387Z,7.23
2023-02-16T15:36:10.108Z,6.27
2023-02-16T15:41:16.178Z,5.83
2023-02-16T15:46:40.489Z,6.88
2023-02-16T15:51:45.959Z,6.37
2023-02-16T15:56:53.327Z,6.07
2023-02-16T16:02:04.963Z,6.77
2023-02-16T16:07:14.939Z,6.23
2023-02-16T16:12:21.437Z,6.17
2023-02-16T16:17:33.064Z,5.90
2023-02-16T16:22:43.643Z,7.20
2023-02-16T16:27:49.375Z,6.30
2023-02-16T16:33:02.215Z,11.15
2023-02-16T16:38:18.839Z,8.90
2023-02-16T16:43:30.621Z,8.53
2023-02-16T16:48:40.055Z,6.23
2023-02-16T16:54:04.808Z,5.87
2023-02-16T16:59:10.079Z,5.18
2023-02-16T17:04:13.873Z,2.83
2023-02-16T17:09:17.927Z,5.10
2023-02-16T17:14:22.438Z,6.70
2023-02-16T17:19:30.202Z,7.60
2023-02-16T17:24:33.983Z,6.13
2023-02-16T17:29:38.336Z,5.30
2023-02-16T17:34:42.208Z,5.63
2023-02-16T17:39:46.139Z,5.33
2023-02-16T17:44:50.509Z,5.60
2023-02-16T17:49:54.384Z,5.53
2023-02-16T17:54:58.240Z,6.47
2023-02-16T18:00:02.063Z,7.13
2023-02-16T18:05:09.093Z,7.07
2023-02-16T18:10:38.325Z,7.77
2023-02-16T18:15:46.505Z,6.80
2023-02-16T18:20:50.832Z,6.50
2023-02-16T18:25:54.721Z,13.17
2023-02-16T18:30:59.233Z,8.93
2023-02-16T18:36:03.783Z,8.60
2023-02-16T18:41:09.076Z,11.18
2023-02-16T18:46:12.956Z,15.05
2023-02-16T18:51:21.722Z,12.30
2023-02-16T18:56:26.352Z,12.03
2023-02-16T19:01:33.390Z,17.13
2023-02-16T19:06:37.192Z,9.03
2023-02-16T19:11:41.798Z,10.43
2023-02-16T19:16:47.032Z,9.18
2023-02-16T19:21:51.325Z,8.48
2023-02-16T19:26:55.318Z,8.43
2023-02-16T19:32:00.371Z,6.87
2023-02-16T19:37:04.270Z,9.60
2023-02-16T19:42:08.180Z,9.37
2023-02-16T19:47:11.976Z,6.70
2023-02-16T19:52:15.994Z,13.10
2023-02-16T19:57:20.346Z,8.90
2023-02-16T20:02:24.181Z,13.23
2023-02-16T20:07:28.875Z,18.33
2023-02-16T20:12:32.833Z,18.15
2023-02-16T20:17:36.901Z,10.37
2023-02-16T20:22:40.873Z,8.73
2023-02-16T20:27:44.685Z,11.37
2023-02-16T20:32:49.623Z,9.53
2023-02-16T20:37:54.438Z,11.27
2023-02-16T20:42:58.451Z,9.93
2023-02-16T20:48:04.605Z,11.73
2023-02-16T20:53:08.529Z,11.07
2023-02-16T20:58:12.337Z,11.17
2023-02-16T21:03:16.428Z,10.53
2023-02-16T21:08:20.480Z,16.63
2023-02-16T21:13:24.468Z,35.87
2023-02-16T21:18:28.625Z,21.17
2023-02-16T21:23:32.564Z,16.60
2023-02-16T21:28:36.533Z,20.63
2023-02-16T21:33:40.776Z,21.50
2023-02-16T21:38:45.822Z,12.20
2023-02-16T21:43:49.767Z,4.95
2023-02-16T21:48:53.769Z,7.33
2023-02-16T21:53:59.656Z,7.67
2023-02-16T21:59:04.239Z,9.27
2023-02-16T22:04:09.733Z,15.83
2023-02-16T22:09:18.472Z,14.27
2023-02-16T22:14:22.251Z,10.40
2023-02-16T22:19:27.842Z,11.13
2023-02-16T22:24:31.532Z,8.27
2023-02-16T22:29:35.568Z,9.87
2023-02-16T22:34:39.579Z,11.70
2023-02-16T22:39:43.473Z,11.70
2023-02-16T22:44:48.096Z,7.27
2023-02-16T22:49:52.858Z,9.23
2023-02-16T22:54:56.896Z,13.20
2023-02-16T23:00:01.836Z,12.80
2023-02-16T23:05:06.542Z,12.50
2023-02-16T23:10:10.652Z,10.60
2023-02-16T23:15:15.714Z,10.88
2023-02-16T23:20:19.950Z,9.23
2023-02-16T23:25:35.742Z,7.63
2023-02-16T23:35:46.315Z,6.20
2023-02-16T23:41:00.664Z,8.53
2023-02-16T23:46:05.761Z,8.47
2023-02-16T23:51:12.093Z,6.70
